createdAt,value
2019-05-15T00:00:20.442Z,4.40
2019-05-15T00:00:53.137Z,4.30
2019-05-15T00:01:25.782Z,4.30
2019-05-15T00:01:58.514Z,4.30
2019-05-15T00:02:31.263Z,4.30
2019-05-15T00:03:04.339Z,4.20
2019-05-15T00:03:39.165Z,4.20
2019-05-15T00:04:11.403Z,4.20
2019-05-15T00:04:44.033Z,4.20
2019-05-15T00:05:18.841Z,4.10
2019-05-15T00:05:51.579Z,4.10
2019-05-15T00:06:24.677Z,4.10
2019-05-15T00:06:58.292Z,4.10
2019-05-15T00:07:31.502Z,4.10
2019-05-15T00:08:04.183Z,4.10
2019-05-15T00:08:38.694Z,4.10
2019-05-15T00:09:11.552Z,4.10
2019-05-15T00:09:51.224Z,4.10
2019-05-15T00:10:24.299Z,4.10
2019-05-15T00:10:58.695Z,4.10
2019-05-15T00:11:31.925Z,4.10
2019-05-15T00:12:04.567Z,4.10
2019-05-15T00:12:39.381Z,4.10
2019-05-15T00:13:12.034Z,4.20
2019-05-15T00:13:45.147Z,4.20
2019-05-15T00:14:18.348Z,4.10
2019-05-15T00:14:51.049Z,4.10
2019-05-15T00:15:23.692Z,4.10
2019-05-15T00:15:58.864Z,4.20
2019-05-15T00:16:31.074Z,4.10
2019-05-15T00:17:03.753Z,4.10
2019-05-15T00:17:39.103Z,4.10
2019-05-15T00:18:11.554Z,4.00
2019-05-15T00:18:44.641Z,4.00
2019-05-15T00:19:18.790Z,4.00
2019-05-15T00:19:51.599Z,4.00
2019-05-15T00:20:24.544Z,4.00
2019-05-15T00:20:59.491Z,4.00
2019-05-15T00:21:31.635Z,4.00
2019-05-15T00:22:04.450Z,3.90
2019-05-15T00:22:38.848Z,3.90
2019-05-15T00:23:11.921Z,3.90
2019-05-15T00:23:44.571Z,3.90
2019-05-15T00:24:17.903Z,3.90
2019-05-15T00:24:50.654Z,3.90
2019-05-15T00:25:23.308Z,3.90
2019-05-15T00:25:58.265Z,3.90
2019-05-15T00:26:30.348Z,3.90
2019-05-15T00:27:03.317Z,3.90
2019-05-15T00:27:38.428Z,3.80
2019-05-15T00:28:11.256Z,3.90
2019-05-15T00:28:43.949Z,3.90
2019-05-15T00:29:19.594Z,3.90
2019-05-15T00:29:51.357Z,3.80
2019-05-15T00:30:24.027Z,3.90
2019-05-15T00:30:58.293Z,3.90
2019-05-15T00:31:31.404Z,3.90
2019-05-15T00:32:04.044Z,3.90
2019-05-15T00:32:39.007Z,3.90
2019-05-15T00:33:11.282Z,3.90
2019-05-15T00:33:43.977Z,3.90
2019-05-15T00:34:18.317Z,3.90
2019-05-15T00:34:51.208Z,3.90
2019-05-15T00:35:23.850Z,3.90
2019-05-15T00:35:58.849Z,3.90
2019-05-15T00:36:31.267Z,3.90
2019-05-15T00:37:03.889Z,3.90
2019-05-15T00:37:38.732Z,3.90
2019-05-15T00:38:11.375Z,3.80
2019-05-15T00:38:44.352Z,3.80
2019-05-15T00:39:18.998Z,3.80
2019-05-15T00:39:51.825Z,3.80
2019-05-15T00:40:24.541Z,3.80
2019-05-15T00:40:58.469Z,3.80
2019-05-15T00:41:31.380Z,3.80
2019-05-15T00:42:04.335Z,3.70
2019-05-15T00:42:38.337Z,3.80
2019-05-15T00:43:11.376Z,3.80
2019-05-15T00:43:45.098Z,3.80
2019-05-15T00:44:18.671Z,3.80
2019-05-15T00:44:51.967Z,3.80
2019-05-15T00:45:24.608Z,3.80
2019-05-15T00:45:58.572Z,3.70
2019-05-15T00:46:31.328Z,3.70
2019-05-15T00:47:04.781Z,3.70
2019-05-15T00:47:39.728Z,3.60
2019-05-15T00:48:12.880Z,3.70
2019-05-15T00:48:45.522Z,3.70
2019-05-15T00:49:18.926Z,3.70
2019-05-15T00:49:51.808Z,3.70
2019-05-15T00:50:24.904Z,3.70
2019-05-15T00:50:59.037Z,3.70
2019-05-15T00:51:31.751Z,3.70
2019-05-15T00:52:04.422Z,3.70
2019-05-15T00:52:39.117Z,3.80
2019-05-15T00:53:11.940Z,3.80
2019-05-15T00:53:44.984Z,3.80
2019-05-15T00:54:19.215Z,3.80
2019-05-15T00:54:51.987Z,3.80
2019-05-15T00:55:25.021Z,3.80
2019-05-15T00:55:58.169Z,3.70
2019-05-15T00:56:30.899Z,3.70
2019-05-15T00:57:03.552Z,3.70
2019-05-15T00:57:36.182Z,3.70
2019-05-15T00:58:09.218Z,3.70
2019-05-15T00:58:41.844Z,3.70
2019-05-15T00:59:24.064Z,3.70
2019-05-15T00:59:49.254Z,3.70
2019-05-15T01:00:42.249Z,3.80
2019-05-15T01:01:15.271Z,3.80
2019-05-15T01:01:48.737Z,3.80
2019-05-15T01:02:21.656Z,3.80
2019-05-15T01:02:54.311Z,3.80
2019-05-15T01:03:27.919Z,3.80
2019-05-15T01:04:00.711Z,3.80
2019-05-15T01:04:33.367Z,3.80
2019-05-15T01:05:08.097Z,3.80
2019-05-15T01:05:41.297Z,3.80
2019-05-15T01:06:14.332Z,3.80
2019-05-15T01:06:48.757Z,3.80
2019-05-15T01:07:22.087Z,3.70
2019-05-15T01:07:54.744Z,3.70
2019-05-15T01:08:28.433Z,3.70
2019-05-15T01:09:01.258Z,3.60
2019-05-15T01:09:34.268Z,3.70
2019-05-15T01:10:09.727Z,3.70
2019-05-15T01:10:42.593Z,3.60
2019-05-15T01:11:15.211Z,3.60
2019-05-15T01:11:48.793Z,3.70
2019-05-15T01:12:21.960Z,3.70
2019-05-15T01:12:54.931Z,3.70
2019-05-15T01:13:28.205Z,3.70
2019-05-15T01:14:00.999Z,3.70
2019-05-15T01:14:33.804Z,3.70
2019-05-15T01:15:09.224Z,3.70
2019-05-15T01:15:42.102Z,3.80
2019-05-15T01:16:15.160Z,3.80
2019-05-15T01:16:49.101Z,3.80
2019-05-15T01:17:21.830Z,3.80
2019-05-15T01:17:54.904Z,3.80
2019-05-15T01:18:29.220Z,3.80
2019-05-15T01:19:02.025Z,3.70
2019-05-15T01:19:34.877Z,3.70
2019-05-15T01:20:08.448Z,3.80
2019-05-15T01:20:41.700Z,3.70
2019-05-15T01:21:14.676Z,3.80
2019-05-15T01:21:48.127Z,3.80
2019-05-15T01:22:21.336Z,3.80
2019-05-15T01:22:54.789Z,3.80
2019-05-15T01:23:28.222Z,3.80
2019-05-15T01:24:01.111Z,3.80
2019-05-15T01:24:34.119Z,3.80
2019-05-15T01:25:08.695Z,3.90
2019-05-15T01:25:41.696Z,3.90
2019-05-15T01:26:14.345Z,3.80
2019-05-15T01:26:49.036Z,3.80
2019-05-15T01:27:21.747Z,3.80
2019-05-15T01:27:54.372Z,3.80
2019-05-15T01:28:28.913Z,3.80
2019-05-15T01:29:01.815Z,3.80
2019-05-15T01:29:41.929Z,3.80
2019-05-15T01:30:09.551Z,3.70
2019-05-15T01:30:42.627Z,3.80
2019-05-15T01:31:18.912Z,3.80
2019-05-15T01:31:51.683Z,3.80
2019-05-15T01:32:24.652Z,3.80
2019-05-15T01:32:59.215Z,3.80
2019-05-15T01:33:31.741Z,3.80
2019-05-15T01:34:04.425Z,3.80
2019-05-15T01:34:38.408Z,3.80
2019-05-15T01:35:11.348Z,3.80
2019-05-15T01:35:43.970Z,3.80
2019-05-15T01:36:19.106Z,3.80
2019-05-15T01:36:51.790Z,3.80
2019-05-15T01:37:24.779Z,3.80
2019-05-15T01:37:58.599Z,3.80
2019-05-15T01:38:31.866Z,3.70
2019-05-15T01:39:07.846Z,3.70
2019-05-15T01:39:40.129Z,3.70
2019-05-15T01:40:13.100Z,3.70
2019-05-15T01:40:48.529Z,3.70
2019-05-15T01:41:21.291Z,3.70
2019-05-15T01:41:54.299Z,3.70
2019-05-15T01:42:27.985Z,3.70
2019-05-15T01:43:01.833Z,3.70
2019-05-15T01:43:34.840Z,3.70
2019-05-15T01:44:08.804Z,3.80
2019-05-15T01:44:42.343Z,3.70
2019-05-15T01:45:16.025Z,3.70
2019-05-15T01:45:48.646Z,3.70
2019-05-15T01:46:21.283Z,3.70
2019-05-15T01:46:54.313Z,3.70
2019-05-15T01:47:28.185Z,3.70
2019-05-15T01:48:01.160Z,3.80
2019-05-15T01:48:34.318Z,3.80
2019-05-15T01:49:08.054Z,3.80
2019-05-15T01:49:41.394Z,3.80
2019-05-15T01:50:14.527Z,3.80
2019-05-15T01:50:49.218Z,3.80
2019-05-15T01:51:21.657Z,3.90
2019-05-15T01:51:54.321Z,3.90
2019-05-15T01:52:27.949Z,3.90
2019-05-15T01:53:01.107Z,3.80
2019-05-15T01:53:33.755Z,3.80
2019-05-15T01:54:06.420Z,3.90
2019-05-15T01:54:39.688Z,3.80
2019-05-15T01:55:12.818Z,3.80
2019-05-15T01:55:45.447Z,3.80
2019-05-15T01:56:18.798Z,3.70
2019-05-15T01:56:51.976Z,3.70
2019-05-15T01:57:24.610Z,3.80
2019-05-15T01:57:58.148Z,3.70
2019-05-15T01:58:30.932Z,3.70
2019-05-15T01:59:03.939Z,3.70
2019-05-15T01:59:40.184Z,3.70
2019-05-15T02:00:12.651Z,3.70
2019-05-15T02:00:45.285Z,3.70
2019-05-15T02:01:19.113Z,3.80
2019-05-15T02:01:52.578Z,3.70
2019-05-15T02:02:25.231Z,3.80
2019-05-15T02:02:58.767Z,3.80
2019-05-15T02:03:31.928Z,3.80
2019-05-15T02:04:05.364Z,3.80
2019-05-15T02:04:39.363Z,3.80
2019-05-15T02:05:12.590Z,3.80
2019-05-15T02:05:47.917Z,3.70
2019-05-15T02:06:20.445Z,3.70
2019-05-15T02:06:53.068Z,3.80
2019-05-15T02:07:27.969Z,3.70
2019-05-15T02:08:00.214Z,3.70
2019-05-15T02:08:32.863Z,3.70
2019-05-15T02:09:08.311Z,3.70
2019-05-15T02:09:41.426Z,3.70
2019-05-15T02:10:14.300Z,3.70
2019-05-15T02:10:49.157Z,3.70
2019-05-15T02:11:21.427Z,3.70
2019-05-15T02:11:54.091Z,3.70
2019-05-15T02:12:28.578Z,3.70
2019-05-15T02:13:01.242Z,3.70
2019-05-15T02:13:33.908Z,3.60
2019-05-15T02:14:08.255Z,3.60
2019-05-15T02:14:41.479Z,3.60
2019-05-15T02:15:14.244Z,3.60
2019-05-15T02:15:48.307Z,3.60
2019-05-15T02:16:21.151Z,3.60
2019-05-15T02:16:53.781Z,3.60
2019-05-15T02:17:28.312Z,3.60
2019-05-15T02:18:01.409Z,3.60
2019-05-15T02:18:34.106Z,3.60
2019-05-15T02:19:08.965Z,3.60
2019-05-15T02:19:41.514Z,3.60
2019-05-15T02:20:14.382Z,3.60
2019-05-15T02:20:49.311Z,3.60
2019-05-15T02:21:22.494Z,3.60
2019-05-15T02:21:55.513Z,3.60
2019-05-15T02:22:28.405Z,3.60
2019-05-15T02:23:01.688Z,3.60
2019-05-15T02:23:34.692Z,3.60
2019-05-15T02:24:08.046Z,3.60
2019-05-15T02:24:41.098Z,3.60
2019-05-15T02:25:14.260Z,3.60
2019-05-15T02:25:48.131Z,3.60
2019-05-15T02:26:21.296Z,3.60
2019-05-15T02:26:54.248Z,3.60
2019-05-15T02:27:28.769Z,3.60
2019-05-15T02:28:01.746Z,3.60
2019-05-15T02:28:34.380Z,3.60
2019-05-15T02:29:07.829Z,3.50
2019-05-15T02:29:41.567Z,3.50
2019-05-15T02:30:27.410Z,3.50
2019-05-15T02:30:50.405Z,3.50
2019-05-15T02:31:23.809Z,3.50
2019-05-15T02:31:59.226Z,3.50
2019-05-15T02:32:31.229Z,3.60
2019-05-15T02:33:04.563Z,3.60
2019-05-15T02:33:40.097Z,3.50
2019-05-15T02:34:11.664Z,3.50
2019-05-15T02:34:44.726Z,3.60
2019-05-15T02:35:18.511Z,3.50
2019-05-15T02:35:51.356Z,3.50
2019-05-15T02:36:24.004Z,3.50
2019-05-15T02:36:59.858Z,3.50
2019-05-15T02:37:31.100Z,3.50
2019-05-15T02:38:04.035Z,3.50
2019-05-15T02:38:40.452Z,3.50
2019-05-15T02:39:11.500Z,3.50
2019-05-15T02:39:44.129Z,3.50
2019-05-15T02:40:19.187Z,3.50
2019-05-15T02:40:51.768Z,3.50
2019-05-15T02:41:24.499Z,3.50
2019-05-15T02:41:59.517Z,3.50
2019-05-15T02:42:32.082Z,3.50
2019-05-15T02:43:04.763Z,3.50
2019-05-15T02:43:39.116Z,3.50
2019-05-15T02:44:11.882Z,3.50
2019-05-15T02:44:44.731Z,3.60
2019-05-15T02:45:19.558Z,3.50
2019-05-15T02:45:52.185Z,3.50
2019-05-15T02:46:25.224Z,3.50
2019-05-15T02:46:58.780Z,3.40
2019-05-15T02:47:31.730Z,3.50
2019-05-15T02:48:04.777Z,3.50
2019-05-15T02:48:40.609Z,3.50
2019-05-15T02:49:12.330Z,3.50
2019-05-15T02:49:44.990Z,3.50
2019-05-15T02:50:20.424Z,3.50
2019-05-15T02:50:53.172Z,3.50
2019-05-15T02:51:26.222Z,3.50
2019-05-15T02:52:01.004Z,3.50
2019-05-15T02:52:33.621Z,3.50
2019-05-15T02:53:09.470Z,3.50
2019-05-15T02:53:40.697Z,3.50
2019-05-15T02:54:13.343Z,3.60
2019-05-15T02:54:49.527Z,3.60
2019-05-15T02:55:20.611Z,3.50
2019-05-15T02:55:53.585Z,3.50
2019-05-15T02:56:29.095Z,3.50
2019-05-15T02:57:00.697Z,3.50
2019-05-15T02:57:33.344Z,3.50
2019-05-15T02:58:05.981Z,3.50
2019-05-15T02:58:39.822Z,3.50
2019-05-15T02:59:12.776Z,3.60
2019-05-15T02:59:45.420Z,3.60
2019-05-15T03:00:35.952Z,3.70
2019-05-15T03:00:53.557Z,3.70
2019-05-15T03:01:28.583Z,3.70
2019-05-15T03:02:01.252Z,3.70
2019-05-15T03:02:34.298Z,3.80
2019-05-15T03:03:09.467Z,3.80
2019-05-15T03:03:41.898Z,3.80
2019-05-15T03:04:14.555Z,3.80
2019-05-15T03:04:48.646Z,3.80
2019-05-15T03:05:21.404Z,3.80
2019-05-15T03:05:54.234Z,3.80
2019-05-15T03:06:29.551Z,3.70
2019-05-15T03:07:01.691Z,3.80
2019-05-15T03:07:35.187Z,3.80
2019-05-15T03:08:09.633Z,3.80
2019-05-15T03:08:42.958Z,3.80
2019-05-15T03:09:18.518Z,3.90
2019-05-15T03:09:50.483Z,3.90
2019-05-15T03:10:23.154Z,3.90
2019-05-15T03:10:59.061Z,3.80
2019-05-15T03:11:30.949Z,3.80
2019-05-15T03:12:03.727Z,3.80
2019-05-15T03:12:40.151Z,3.80
2019-05-15T03:13:11.369Z,3.80
2019-05-15T03:13:44.017Z,3.80
2019-05-15T03:14:16.683Z,3.70
2019-05-15T03:14:50.033Z,3.80
2019-05-15T03:15:23.164Z,3.80
2019-05-15T03:15:59.477Z,3.80
2019-05-15T03:16:31.269Z,3.90
2019-05-15T03:17:04.309Z,3.90
2019-05-15T03:17:40.259Z,3.90
2019-05-15T03:18:11.416Z,3.90
2019-05-15T03:18:44.117Z,3.90
2019-05-15T03:19:19.235Z,4.00
2019-05-15T03:19:51.227Z,4.00
2019-05-15T03:20:24.551Z,4.00
2019-05-15T03:21:00.341Z,4.00
2019-05-15T03:21:32.306Z,4.00
2019-05-15T03:22:04.966Z,4.00
2019-05-15T03:22:40.031Z,4.00
2019-05-15T03:23:12.219Z,4.00
2019-05-15T03:23:45.223Z,4.00
2019-05-15T03:24:19.428Z,4.00
2019-05-15T03:24:52.294Z,4.10
2019-05-15T03:25:24.958Z,4.10
2019-05-15T03:26:03.003Z,4.10
2019-05-15T03:26:32.474Z,4.10
2019-05-15T03:27:05.110Z,4.10
2019-05-15T03:27:39.472Z,4.10
2019-05-15T03:28:12.988Z,4.10
2019-05-15T03:28:49.372Z,4.10
2019-05-15T03:29:21.409Z,4.10
2019-05-15T03:29:54.132Z,4.10
2019-05-15T03:30:31.898Z,4.10
2019-05-15T03:31:22.336Z,4.10
2019-05-15T03:31:57.766Z,4.20
2019-05-15T03:32:25.279Z,4.20
2019-05-15T03:32:53.922Z,4.10
2019-05-15T03:33:27.356Z,4.20
2019-05-15T03:33:55.347Z,4.20
2019-05-15T03:34:36.814Z,4.20
2019-05-15T03:35:05.370Z,4.20
2019-05-15T03:35:42.968Z,4.20
2019-05-15T03:36:13.651Z,4.20
2019-05-15T03:36:52.368Z,4.20
2019-05-15T03:37:22.643Z,4.20
2019-05-15T03:37:55.952Z,4.20
2019-05-15T03:38:29.641Z,4.20
2019-05-15T03:39:05.440Z,4.20
2019-05-15T03:39:39.328Z,4.20
2019-05-15T03:40:12.807Z,4.30
2019-05-15T03:40:45.840Z,4.30
2019-05-15T03:41:19.445Z,4.30
2019-05-15T03:41:52.555Z,4.30
2019-05-15T03:42:25.657Z,4.30
2019-05-15T03:42:59.263Z,4.30
2019-05-15T03:43:32.283Z,4.30
2019-05-15T03:44:05.264Z,4.30
2019-05-15T03:44:39.337Z,4.30
2019-05-15T03:45:12.329Z,4.30
2019-05-15T03:45:45.309Z,4.30
2019-05-15T03:46:19.972Z,4.30
2019-05-15T03:46:53.280Z,4.30
2019-05-15T03:47:25.940Z,4.40
2019-05-15T03:47:59.606Z,4.40
2019-05-15T03:48:32.745Z,4.40
2019-05-15T03:49:08.457Z,4.50
2019-05-15T03:49:40.245Z,4.50
2019-05-15T03:50:13.703Z,4.50
2019-05-15T03:50:48.860Z,4.50
2019-05-15T03:51:21.340Z,4.60
2019-05-15T03:51:53.989Z,4.60
2019-05-15T03:52:29.483Z,4.60
2019-05-15T03:53:01.441Z,4.60
2019-05-15T03:53:34.506Z,4.60
2019-05-15T03:54:09.418Z,4.60
2019-05-15T03:54:42.155Z,4.60
2019-05-15T03:55:14.809Z,4.60
2019-05-15T03:55:48.999Z,4.60
2019-05-15T03:56:21.952Z,4.60
2019-05-15T03:56:54.613Z,4.60
2019-05-15T03:57:30.434Z,4.70
2019-05-15T03:58:02.711Z,4.70
2019-05-15T03:58:35.675Z,4.70
2019-05-15T03:59:09.334Z,4.70
2019-05-15T03:59:42.392Z,4.70
2019-05-15T04:00:15.356Z,4.70
2019-05-15T04:00:49.807Z,4.70
2019-05-15T04:01:34.014Z,4.70
2019-05-15T04:01:59.983Z,4.70
2019-05-15T04:02:31.810Z,4.70
2019-05-15T04:03:04.447Z,4.70
2019-05-15T04:03:38.967Z,4.70
2019-05-15T04:04:11.865Z,4.70
2019-05-15T04:04:44.546Z,4.70
2019-05-15T04:05:19.901Z,4.70
2019-05-15T04:05:52.596Z,4.70
2019-05-15T04:06:25.241Z,4.80
2019-05-15T04:07:00.693Z,4.80
2019-05-15T04:07:33.388Z,4.80
2019-05-15T04:08:06.181Z,4.80
2019-05-15T04:08:42.392Z,4.80
2019-05-15T04:09:15.060Z,4.90
2019-05-15T04:09:49.398Z,4.90
2019-05-15T04:10:22.184Z,4.90
2019-05-15T04:10:54.850Z,4.90
2019-05-15T04:11:29.369Z,4.90
2019-05-15T04:12:02.500Z,4.90
2019-05-15T04:12:39.820Z,4.90
2019-05-15T04:13:11.483Z,4.90
2019-05-15T04:13:44.661Z,4.90
2019-05-15T04:14:19.319Z,5.00
2019-05-15T04:14:51.769Z,5.00
2019-05-15T04:15:24.800Z,5.00
2019-05-15T04:15:59.353Z,5.00
2019-05-15T04:16:31.895Z,5.10
2019-05-15T04:17:04.551Z,5.10
2019-05-15T04:17:40.120Z,5.10
2019-05-15T04:18:12.183Z,5.10
2019-05-15T04:18:44.846Z,5.10
2019-05-15T04:19:19.114Z,5.20
2019-05-15T04:19:52.091Z,5.20
2019-05-15T04:20:24.744Z,5.10
2019-05-15T04:21:00.201Z,5.20
2019-05-15T04:21:32.322Z,5.20
2019-05-15T04:22:05.346Z,5.20
2019-05-15T04:22:39.993Z,5.30
2019-05-15T04:23:19.106Z,5.20
2019-05-15T04:23:53.844Z,5.20
2019-05-15T04:24:30.130Z,5.20
2019-05-15T04:25:03.496Z,5.30
2019-05-15T04:25:39.132Z,5.30
2019-05-15T04:26:13.177Z,5.30
2019-05-15T04:26:48.703Z,5.30
2019-05-15T04:27:21.982Z,5.20
2019-05-15T04:27:58.876Z,5.30
2019-05-15T04:28:32.683Z,5.30
2019-05-15T04:29:09.465Z,5.30
2019-05-15T04:29:40.541Z,5.30
2019-05-15T04:30:13.887Z,5.30
2019-05-15T04:30:49.314Z,5.40
2019-05-15T04:31:21.348Z,5.40
2019-05-15T04:32:01.016Z,5.40
2019-05-15T04:32:29.072Z,5.40
2019-05-15T04:33:02.279Z,5.50
2019-05-15T04:33:35.708Z,5.40
2019-05-15T04:34:09.166Z,5.40
2019-05-15T04:34:42.016Z,5.40
2019-05-15T04:35:14.770Z,5.40
2019-05-15T04:35:49.658Z,5.40
2019-05-15T04:36:21.894Z,5.50
2019-05-15T04:36:54.875Z,5.50
2019-05-15T04:37:29.874Z,5.50
2019-05-15T04:38:02.708Z,5.50
2019-05-15T04:38:39.027Z,5.50
2019-05-15T04:39:10.201Z,5.60
2019-05-15T04:39:43.572Z,5.60
2019-05-15T04:40:19.167Z,5.60
2019-05-15T04:40:50.706Z,5.60
2019-05-15T04:41:23.376Z,5.60
2019-05-15T04:41:58.868Z,5.70
2019-05-15T04:42:30.485Z,5.70
2019-05-15T04:43:03.135Z,5.70
2019-05-15T04:43:41.331Z,5.80
2019-05-15T04:44:10.588Z,5.80
2019-05-15T04:44:44.114Z,5.80
2019-05-15T04:45:19.425Z,5.80
2019-05-15T04:45:51.324Z,5.80
2019-05-15T04:46:24.336Z,5.90
2019-05-15T04:46:59.465Z,5.90
2019-05-15T04:47:31.830Z,5.90
2019-05-15T04:48:05.235Z,6.00
2019-05-15T04:48:39.881Z,6.00
2019-05-15T04:49:12.679Z,6.00
2019-05-15T04:49:45.325Z,6.00
2019-05-15T04:50:19.303Z,6.10
2019-05-15T04:50:52.180Z,6.10
2019-05-15T04:51:24.823Z,6.10
2019-05-15T04:52:03.107Z,6.10
2019-05-15T04:52:32.560Z,6.10
2019-05-15T04:53:05.573Z,6.20
2019-05-15T04:53:39.375Z,6.20
2019-05-15T04:54:12.756Z,6.20
2019-05-15T04:54:49.145Z,6.20
2019-05-15T04:55:20.701Z,6.30
2019-05-15T04:55:53.414Z,6.20
2019-05-15T04:56:29.135Z,6.20
2019-05-15T04:57:00.551Z,6.30
2019-05-15T04:57:34.357Z,6.30
2019-05-15T04:58:10.047Z,6.30
2019-05-15T04:58:42.528Z,6.30
2019-05-15T04:59:15.515Z,6.40
2019-05-15T04:59:49.687Z,6.40
2019-05-15T05:00:49.590Z,6.40
2019-05-15T05:01:22.051Z,6.50
2019-05-15T05:02:13.005Z,6.50
2019-05-15T05:02:32.310Z,6.50
2019-05-15T05:03:03.735Z,6.50
2019-05-15T05:03:39.288Z,6.50
2019-05-15T05:04:10.808Z,6.50
2019-05-15T05:04:43.462Z,6.60
2019-05-15T05:05:18.774Z,6.60
2019-05-15T05:05:50.664Z,6.60
2019-05-15T05:06:23.951Z,6.70
2019-05-15T05:06:58.661Z,6.70
2019-05-15T05:07:31.347Z,6.70
2019-05-15T05:08:04.014Z,6.70
2019-05-15T05:08:39.751Z,6.80
2019-05-15T05:09:11.547Z,6.80
2019-05-15T05:09:44.587Z,6.80
2019-05-15T05:10:19.599Z,6.80
2019-05-15T05:10:51.936Z,6.80
2019-05-15T05:11:24.759Z,6.80
2019-05-15T05:11:58.228Z,6.80
2019-05-15T05:12:31.365Z,6.80
2019-05-15T05:13:04.002Z,6.90
2019-05-15T05:13:38.963Z,6.90
2019-05-15T05:14:11.111Z,6.90
2019-05-15T05:14:44.447Z,7.00
2019-05-15T05:15:18.978Z,7.00
2019-05-15T05:15:52.186Z,7.00
2019-05-15T05:16:25.220Z,7.00
2019-05-15T05:16:59.289Z,7.00
2019-05-15T05:17:32.380Z,7.00
2019-05-15T05:18:05.049Z,7.10
2019-05-15T05:18:40.965Z,7.10
2019-05-15T05:19:12.172Z,7.10
2019-05-15T05:19:44.818Z,7.10
2019-05-15T05:20:17.968Z,7.10
2019-05-15T05:20:50.975Z,7.20
2019-05-15T05:21:23.644Z,7.30
2019-05-15T05:21:58.449Z,7.20
2019-05-15T05:22:30.797Z,7.20
2019-05-15T05:23:03.920Z,7.20
2019-05-15T05:23:37.754Z,7.20
2019-05-15T05:24:10.841Z,7.20
2019-05-15T05:24:43.876Z,7.20
2019-05-15T05:25:18.291Z,7.30
2019-05-15T05:25:50.997Z,7.30
2019-05-15T05:26:23.641Z,7.30
2019-05-15T05:26:58.059Z,7.40
2019-05-15T05:27:31.032Z,7.40
2019-05-15T05:28:03.825Z,7.40
2019-05-15T05:28:37.922Z,7.50
2019-05-15T05:29:11.262Z,7.50
2019-05-15T05:29:44.202Z,7.50
2019-05-15T05:30:18.908Z,7.50
2019-05-15T05:30:51.369Z,7.50
2019-05-15T05:31:24.439Z,7.60
2019-05-15T05:31:58.600Z,7.60
2019-05-15T05:32:35.018Z,7.60
2019-05-15T05:33:05.796Z,7.60
2019-05-15T05:33:38.994Z,7.60
2019-05-15T05:34:11.746Z,7.70
2019-05-15T05:34:44.412Z,7.70
2019-05-15T05:35:18.508Z,7.70
2019-05-15T05:35:51.261Z,7.70
2019-05-15T05:36:24.279Z,7.70
2019-05-15T05:36:58.891Z,7.80
2019-05-15T05:37:32.923Z,7.80
2019-05-15T05:38:09.265Z,7.80
2019-05-15T05:38:42.048Z,7.80
2019-05-15T05:39:17.650Z,7.80
2019-05-15T05:39:49.442Z,7.80
2019-05-15T05:40:22.386Z,7.80
2019-05-15T05:40:55.031Z,7.80
2019-05-15T05:41:28.172Z,7.80
2019-05-15T05:42:00.870Z,7.80
2019-05-15T05:42:33.844Z,7.80
2019-05-15T05:43:09.302Z,7.80
2019-05-15T05:43:41.026Z,7.80
2019-05-15T05:44:13.728Z,7.80
2019-05-15T05:44:48.753Z,7.80
2019-05-15T05:45:21.387Z,7.90
2019-05-15T05:45:54.020Z,7.90
2019-05-15T05:46:28.075Z,7.90
2019-05-15T05:47:00.717Z,8.00
2019-05-15T05:47:33.374Z,8.00
2019-05-15T05:48:06.000Z,8.00
2019-05-15T05:48:38.662Z,8.00
2019-05-15T05:49:12.392Z,8.00
2019-05-15T05:49:45.067Z,8.00
2019-05-15T05:50:38.341Z,8.10
2019-05-15T05:51:10.474Z,8.10
2019-05-15T05:51:43.412Z,8.10
2019-05-15T05:52:18.175Z,8.10
2019-05-15T05:52:50.481Z,8.10
2019-05-15T05:53:23.118Z,8.10
2019-05-15T05:53:56.096Z,8.10
2019-05-15T05:54:28.938Z,8.10
2019-05-15T05:55:01.745Z,8.10
2019-05-15T05:55:34.888Z,8.10
2019-05-15T05:56:08.942Z,8.10
2019-05-15T05:56:41.782Z,8.20
2019-05-15T05:57:14.798Z,8.20
2019-05-15T05:57:48.713Z,8.20
2019-05-15T05:58:21.397Z,8.20
2019-05-15T05:58:54.772Z,8.20
2019-05-15T05:59:28.452Z,8.30
2019-05-15T06:00:01.579Z,8.30
2019-05-15T06:00:42.126Z,8.40
2019-05-15T06:01:15.207Z,8.40
2019-05-15T06:01:48.553Z,8.40
2019-05-15T06:02:21.724Z,8.40
2019-05-15T06:02:54.371Z,8.40
2019-05-15T06:03:28.045Z,8.40
2019-05-15T06:04:00.876Z,8.40
2019-05-15T06:04:33.539Z,8.40
2019-05-15T06:05:07.924Z,8.40
2019-05-15T06:05:40.658Z,8.50
2019-05-15T06:06:13.816Z,8.50
2019-05-15T06:06:48.633Z,8.50
2019-05-15T06:07:21.244Z,8.50
2019-05-15T06:07:54.264Z,8.50
2019-05-15T06:08:28.302Z,8.50
2019-05-15T06:09:01.459Z,8.60
2019-05-15T06:09:34.112Z,8.60
2019-05-15T06:10:08.923Z,8.60
2019-05-15T06:10:42.105Z,8.60
2019-05-15T06:11:14.748Z,8.60
2019-05-15T06:11:48.848Z,8.70
2019-05-15T06:12:21.934Z,8.70
2019-05-15T06:12:54.574Z,8.70
2019-05-15T06:13:29.070Z,8.70
2019-05-15T06:14:01.691Z,8.70
2019-05-15T06:14:34.342Z,8.70
2019-05-15T06:15:08.801Z,8.70
2019-05-15T06:15:42.126Z,8.70
2019-05-15T06:16:15.104Z,8.70
2019-05-15T06:16:48.312Z,8.70
2019-05-15T06:17:21.024Z,8.70
2019-05-15T06:17:53.654Z,8.70
2019-05-15T06:18:28.155Z,8.70
2019-05-15T06:19:00.717Z,8.80
2019-05-15T06:19:33.359Z,8.80
2019-05-15T06:20:08.107Z,8.80
2019-05-15T06:20:40.571Z,8.90
2019-05-15T06:21:13.627Z,8.90
2019-05-15T06:21:54.572Z,8.80
2019-05-15T06:22:21.120Z,8.80
2019-05-15T06:22:53.788Z,8.90
2019-05-15T06:23:33.594Z,8.90
2019-05-15T06:24:04.578Z,8.90
2019-05-15T06:24:37.817Z,8.90
2019-05-15T06:25:11.585Z,8.90
2019-05-15T06:25:44.912Z,8.90
2019-05-15T06:26:19.624Z,8.90
2019-05-15T06:26:52.227Z,8.90
2019-05-15T06:27:24.890Z,9.00
2019-05-15T06:27:58.343Z,9.00
2019-05-15T06:28:31.132Z,9.00
2019-05-15T06:29:04.222Z,8.90
2019-05-15T06:29:37.815Z,9.00
2019-05-15T06:30:18.592Z,9.00
2019-05-15T06:30:45.076Z,9.00
2019-05-15T06:31:18.966Z,9.00
2019-05-15T06:31:51.850Z,9.00
2019-05-15T06:32:24.473Z,9.00
2019-05-15T06:33:08.280Z,9.00
2019-05-15T06:33:32.015Z,9.00
2019-05-15T06:34:04.955Z,9.10
2019-05-15T06:34:38.127Z,9.00
2019-05-15T06:35:11.394Z,9.00
2019-05-15T06:35:44.058Z,8.90
2019-05-15T06:36:18.011Z,8.90
2019-05-15T06:36:50.849Z,8.90
2019-05-15T06:37:23.525Z,8.90
2019-05-15T06:37:58.949Z,8.90
2019-05-15T06:38:31.273Z,9.00
2019-05-15T06:39:05.783Z,9.00
2019-05-15T06:39:39.208Z,9.00
2019-05-15T06:40:12.305Z,9.10
2019-05-15T06:40:44.942Z,9.10
2019-05-15T06:41:18.148Z,9.10
2019-05-15T06:41:51.091Z,9.20
2019-05-15T06:42:23.727Z,9.20
2019-05-15T06:42:59.141Z,9.30
2019-05-15T06:43:30.859Z,9.20
2019-05-15T06:44:03.764Z,9.30
2019-05-15T06:44:38.654Z,9.30
2019-05-15T06:45:11.233Z,9.30
2019-05-15T06:45:43.862Z,9.30
2019-05-15T06:46:18.694Z,9.40
2019-05-15T06:46:52.288Z,9.40
2019-05-15T06:47:25.330Z,9.50
2019-05-15T06:47:59.862Z,9.50
2019-05-15T06:48:32.414Z,9.60
2019-05-15T06:49:05.398Z,9.70
2019-05-15T06:49:38.423Z,9.70
2019-05-15T06:50:11.899Z,9.70
2019-05-15T06:50:44.952Z,9.70
2019-05-15T06:51:18.184Z,9.70
2019-05-15T06:51:51.435Z,9.70
2019-05-15T06:52:24.084Z,9.70
2019-05-15T06:52:58.702Z,9.70
2019-05-15T06:53:31.477Z,9.70
2019-05-15T06:54:04.220Z,9.70
2019-05-15T06:54:37.766Z,9.60
2019-05-15T06:55:10.627Z,9.60
2019-05-15T06:55:43.387Z,9.70
2019-05-15T06:56:18.567Z,9.70
2019-05-15T06:56:51.540Z,9.70
2019-05-15T06:57:24.198Z,9.70
2019-05-15T06:57:58.387Z,9.70
2019-05-15T06:58:31.274Z,9.70
2019-05-15T06:59:04.314Z,9.70
2019-05-15T06:59:38.885Z,9.70
2019-05-15T07:00:12.426Z,9.70
2019-05-15T07:00:45.407Z,9.70
2019-05-15T07:01:18.843Z,9.70
2019-05-15T07:01:51.869Z,9.70
2019-05-15T07:02:24.848Z,9.70
2019-05-15T07:02:58.307Z,9.70
2019-05-15T07:03:31.395Z,9.70
2019-05-15T07:04:04.370Z,9.60
2019-05-15T07:04:38.362Z,9.60
2019-05-15T07:05:11.527Z,9.50
2019-05-15T07:05:44.500Z,9.50
2019-05-15T07:06:18.187Z,9.50
2019-05-15T07:06:51.390Z,9.50
2019-05-15T07:07:24.022Z,9.40
2019-05-15T07:07:58.479Z,9.40
2019-05-15T07:08:31.132Z,9.40
2019-05-15T07:09:05.544Z,9.40
2019-05-15T07:09:38.183Z,9.50
2019-05-15T07:10:11.216Z,9.50
2019-05-15T07:10:43.851Z,9.50
2019-05-15T07:11:18.921Z,9.50
2019-05-15T07:11:50.977Z,9.50
2019-05-15T07:12:23.956Z,9.50
2019-05-15T07:12:58.511Z,9.50
2019-05-15T07:13:31.676Z,9.40
2019-05-15T07:14:04.856Z,9.40
2019-05-15T07:14:38.065Z,9.40
2019-05-15T07:15:11.255Z,9.50
2019-05-15T07:15:43.907Z,9.50
2019-05-15T07:16:18.199Z,9.50
2019-05-15T07:16:51.155Z,9.50
2019-05-15T07:17:24.143Z,9.50
2019-05-15T07:17:58.030Z,9.40
2019-05-15T07:18:30.859Z,9.40
2019-05-15T07:19:03.512Z,9.40
2019-05-15T07:19:38.923Z,9.50
2019-05-15T07:20:11.415Z,9.50
2019-05-15T07:20:44.399Z,9.50
2019-05-15T07:21:20.251Z,9.50
2019-05-15T07:21:51.488Z,9.60
2019-05-15T07:22:24.152Z,9.50
2019-05-15T07:22:58.687Z,9.50
2019-05-15T07:23:31.276Z,9.50
2019-05-15T07:24:03.917Z,9.40
2019-05-15T07:24:38.366Z,9.40
2019-05-15T07:25:11.651Z,9.40
2019-05-15T07:25:44.332Z,9.40
2019-05-15T07:26:18.338Z,9.40